Time;durP1;ratioP1;P1;durP2;ratioP2;P2;SDS_P1;SDS_P2;PMS_P1;PMS_P2;Temp;Humidity;BMP_temperature;BMP_pressure;BME280_temperature;BME280_humidity;BME280_pressure;Samples;Min_cycle;Max_cycle;Signal;HPM_P1;HPM_P2
2022/07/28 00:45:14;;;;;;;1.98;1.80;;;;;;;;;;4974428;28;20212;-87
2022/07/28 00:48:02;;;;;;;8.38;2.65;;;;;;;;;;5001780;28;20517;-90
2022/07/28 00:50:30;;;;;;;17.25;4.00;;;;;;;;;;4997369;28;20675;-86
2022/07/28 00:53:02;;;;;;;11.82;3.50;;;;;;;;;;4997651;28;20667;-86
2022/07/28 00:55:40;;;;;;;9.23;3.50;;;;;;;;;;4989364;28;20215;-86
2022/07/28 00:58:17;;;;;;;12.15;3.40;;;;;;;;;;4996649;28;20773;-86
2022/07/28 01:00:49;;;;;;;8.80;2.95;;;;;;;;;;5002076;28;20702;-85
2022/07/28 01:03:33;;;;;;;7.78;2.67;;;;;;;;;;5003957;28;20210;-85
2022/07/28 01:06:20;;;;;;;7.80;2.95;;;;;;;;;;4997146;28;20210;-86
2022/07/28 01:09:06;;;;;;;9.52;2.85;;;;;;;;;;4998076;28;20581;-86
2022/07/28 01:11:39;;;;;;;6.00;2.40;;;;;;;;;;4965183;28;20227;-85
2022/07/28 01:14:21;;;;;;;;;;;;;;;;;;;;;
2022/07/28 01:17:03;;;;;;;4.82;2.53;;;;;;;;;;4995512;28;20223;-85
2022/07/28 01:20:10;;;;;;;;;;;;;;;;;;;;;
2022/07/28 01:25:51;;;;;;;3.60;1.98;;;;;;;;;;5031212;28;20221;-86
2022/07/28 01:28:33;;;;;;;2.97;1.80;;;;;;;;;;5031426;28;20228;-86
2022/07/28 01:31:38;;;;;;;3.33;2.08;;;;;;;;;;5034143;28;20221;-86
2022/07/28 01:40:46;;;;;;;2.60;2.00;;;;;;;;;;5037741;28;20231;-86
2022/07/28 01:43:50;;;;;;;2.60;1.67;;;;;;;;;;5036896;28;20297;-86
2022/07/28 01:46:51;;;;;;;2.28;1.60;;;;;;;;;;5045271;28;20255;-86
2022/07/28 01:49:43;;;;;;;3.42;2.00;;;;;;;;;;5039769;28;20216;-85
2022/07/28 01:52:34;;;;;;;1.75;1.63;;;;;;;;;;5045301;28;20253;-86
2022/07/28 02:01:05;;;;;;;2.00;1.40;;;;;;;;;;5031523;28;20202;-86
2022/07/28 02:03:36;;;;;;;2.55;1.80;;;;;;;;;;5039401;28;20206;-86
2022/07/28 02:06:32;;;;;;;3.85;1.80;;;;;;;;;;5038899;28;20284;-86
2022/07/28 02:09:16;;;;;;;5.70;1.70;;;;;;;;;;5040689;28;20202;-86
2022/07/28 02:12:22;;;;;;;3.38;1.88;;;;;;;;;;5038348;28;20225;-86
2022/07/28 02:15:19;;;;;;;4.50;1.60;;;;;;;;;;5037937;28;20200;-86
2022/07/28 02:17:47;;;;;;;3.25;1.90;;;;;;;;;;5034614;28;20230;-86
2022/07/28 02:20:16;;;;;;;2.17;1.63;;;;;;;;;;5039223;28;20204;-86
2022/07/28 02:22:49;;;;;;;2.63;1.67;;;;;;;;;;5048059;28;20613;-86
2022/07/28 02:25:18;;;;;;;2.80;1.63;;;;;;;;;;5040043;28;20293;-86
2022/07/28 02:27:53;;;;;;;2.42;1.50;;;;;;;;;;5035894;28;20757;-86
2022/07/28 02:30:34;;;;;;;2.60;1.50;;;;;;;;;;5041032;28;20209;-86
2022/07/28 02:36:03;;;;;;;1.67;1.33;;;;;;;;;;5044368;28;20209;-86
2022/07/28 02:38:45;;;;;;;2.65;1.58;;;;;;;;;;5043676;28;20222;-86
2022/07/28 02:44:21;;;;;;;3.35;1.50;;;;;;;;;;5046891;28;20260;-86
2022/07/28 02:47:08;;;;;;;3.17;1.70;;;;;;;;;;5041078;28;20331;-86
2022/07/28 02:58:04;;;;;;;3.38;1.40;;;;;;;;;;5047525;28;20224;-85
2022/07/28 03:00:33;;;;;;;3.25;1.55;;;;;;;;;;5037184;28;20213;-85
2022/07/28 03:03:01;;;;;;;2.72;1.63;;;;;;;;;;5051296;28;20217;-85
2022/07/28 03:05:33;;;;;;;2.40;1.60;;;;;;;;;;5039210;28;20738;-86
2022/07/28 03:08:01;;;;;;;2.20;1.42;;;;;;;;;;5036313;28;20291;-85
2022/07/28 03:10:34;;;;;;;1.35;1.25;;;;;;;;;;5045404;28;20209;-85
2022/07/28 03:13:06;;;;;;;2.05;1.48;;;;;;;;;;5037990;28;20228;-85
2022/07/28 03:15:38;;;;;;;2.65;1.70;;;;;;;;;;5048339;28;20209;-85
2022/07/28 03:18:07;;;;;;;2.40;1.50;;;;;;;;;;5041235;28;20605;-85
2022/07/28 03:20:36;;;;;;;1.95;1.45;;;;;;;;;;5043922;28;20212;-86
2022/07/28 03:23:10;;;;;;;1.73;1.42;;;;;;;;;;5047351;28;20667;-85
2022/07/28 03:25:49;;;;;;;1.30;1.20;;;;;;;;;;5039670;28;20213;-86
2022/07/28 03:28:25;;;;;;;3.13;1.42;;;;;;;;;;5038663;28;20252;-85
2022/07/28 03:31:03;;;;;;;1.80;1.52;;;;;;;;;;5047668;28;20252;-86
2022/07/28 03:33:30;;;;;;;1.85;1.40;;;;;;;;;;5052749;28;20304;-86
2022/07/28 03:36:03;;;;;;;3.30;1.80;;;;;;;;;;5038373;28;20203;-86
2022/07/28 03:38:40;;;;;;;2.28;1.75;;;;;;;;;;5042296;28;20225;-86
2022/07/28 03:41:16;;;;;;;1.70;1.50;;;;;;;;;;5045873;28;20883;-86
2022/07/28 03:44:02;;;;;;;2.45;1.40;;;;;;;;;;5042994;28;20206;-86
2022/07/28 03:46:38;;;;;;;2.50;1.50;;;;;;;;;;5007721;28;20229;-86
2022/07/28 03:49:38;;;;;;;3.28;1.80;;;;;;;;;;5041151;28;20208;-86
2022/07/28 03:55:03;;;;;;;2.90;1.63;;;;;;;;;;5038446;28;20205;-86
2022/07/28 03:57:47;;;;;;;1.60;1.50;;;;;;;;;;5041734;28;20343;-85
2022/07/28 04:00:24;;;;;;;2.35;1.50;;;;;;;;;;5033731;28;20292;-85
2022/07/28 04:02:57;;;;;;;3.05;1.40;;;;;;;;;;5043720;28;20201;-85
2022/07/28 04:11:18;;;;;;;1.63;1.50;;;;;;;;;;5031500;28;20233;-86
2022/07/28 04:13:58;;;;;;;2.08;1.50;;;;;;;;;;5033184;28;20202;-86
2022/07/28 04:16:41;;;;;;;2.50;1.70;;;;;;;;;;5032795;28;20216;-86
2022/07/28 04:19:35;;;;;;;2.10;1.60;;;;;;;;;;5045816;28;20279;-86
2022/07/28 04:28:09;;;;;;;3.45;1.60;;;;;;;;;;5044181;23;20255;-83
2022/07/28 04:30:36;;;;;;;2.47;1.38;;;;;;;;;;5054944;28;20229;-82
2022/07/28 04:33:04;;;;;;;1.50;1.40;;;;;;;;;;5061319;28;20252;-83
2022/07/28 04:35:33;;;;;;;1.70;1.60;;;;;;;;;;5049569;28;20194;-83
2022/07/28 04:38:01;;;;;;;3.40;1.58;;;;;;;;;;5042087;28;20222;-84
2022/07/28 04:40:28;;;;;;;2.78;1.58;;;;;;;;;;5038971;28;20228;-83
2022/07/28 04:42:56;;;;;;;2.33;1.38;;;;;;;;;;5040313;28;20202;-84
2022/07/28 04:45:27;;;;;;;1.63;1.30;;;;;;;;;;5033870;28;20222;-85
2022/07/28 04:47:55;;;;;;;2.78;1.60;;;;;;;;;;5039743;28;20327;-86
2022/07/28 04:50:22;;;;;;;7.13;2.70;;;;;;;;;;5032255;28;20201;-85
2022/07/28 04:52:49;;;;;;;13.18;3.90;;;;;;;;;;5031263;28;20292;-84
2022/07/28 04:55:17;;;;;;;14.05;4.13;;;;;;;;;;5033246;28;20266;-86
2022/07/28 04:57:44;;;;;;;10.70;3.70;;;;;;;;;;5028788;28;20244;-84
2022/07/28 05:00:12;;;;;;;16.38;3.60;;;;;;;;;;5026384;28;20229;-84
2022/07/28 05:02:41;;;;;;;8.65;2.70;;;;;;;;;;5033026;28;20210;-85
2022/07/28 05:05:13;;;;;;;10.30;2.33;;;;;;;;;;5025735;28;20650;-83
2022/07/28 05:07:43;;;;;;;7.65;2.22;;;;;;;;;;5038847;28;20304;-84
2022/07/28 05:10:11;;;;;;;6.57;2.22;;;;;;;;;;5030063;28;20263;-83
2022/07/28 05:12:40;;;;;;;5.70;2.30;;;;;;;;;;5035289;28;20248;-83
2022/07/28 05:15:10;;;;;;;6.25;2.50;;;;;;;;;;5018659;28;20281;-85
2022/07/28 05:17:37;;;;;;;4.57;2.15;;;;;;;;;;5042134;28;20267;-84
2022/07/28 05:20:08;;;;;;;5.82;1.92;;;;;;;;;;5033921;28;20209;-85
2022/07/28 05:22:44;;;;;;;6.03;2.40;;;;;;;;;;5026196;28;20208;-84
2022/07/28 05:25:16;;;;;;;5.22;2.20;;;;;;;;;;5025736;28;20228;-83
2022/07/28 05:27:49;;;;;;;7.00;2.53;;;;;;;;;;5034345;28;20225;-83
2022/07/28 05:30:25;;;;;;;7.72;2.75;;;;;;;;;;5027665;28;20232;-83
2022/07/28 05:32:58;;;;;;;6.78;2.50;;;;;;;;;;5034257;28;20312;-83
2022/07/28 05:35:31;;;;;;;6.78;2.42;;;;;;;;;;5033441;28;20355;-83
2022/07/28 05:38:01;;;;;;;5.18;2.40;;;;;;;;;;5033946;28;20237;-83
2022/07/28 05:40:28;;;;;;;7.60;2.80;;;;;;;;;;5033909;28;20210;-83
2022/07/28 05:42:56;;;;;;;4.40;2.20;;;;;;;;;;5028044;28;20721;-84
2022/07/28 05:45:23;;;;;;;4.97;2.20;;;;;;;;;;5032063;28;20289;-83
2022/07/28 05:47:51;;;;;;;5.13;2.42;;;;;;;;;;5032605;28;20226;-83
2022/07/28 05:50:21;;;;;;;4.93;2.20;;;;;;;;;;5032411;28;20202;-83
2022/07/28 05:52:50;;;;;;;4.70;2.00;;;;;;;;;;5033784;28;20213;-84
2022/07/28 05:55:18;;;;;;;5.18;2.17;;;;;;;;;;5032713;28;20209;-84
2022/07/28 05:57:45;;;;;;;5.63;2.15;;;;;;;;;;5033756;28;20225;-83
2022/07/28 06:00:14;;;;;;;5.05;2.33;;;;;;;;;;5033660;28;20206;-84
2022/07/28 06:02:44;;;;;;;2.90;2.17;;;;;;;;;;5030841;28;20208;-84
2022/07/28 06:05:11;;;;;;;3.63;2.20;;;;;;;;;;5020453;28;20202;-84
2022/07/28 06:07:38;;;;;;;2.90;1.88;;;;;;;;;;5032057;28;20232;-84
2022/07/28 06:10:11;;;;;;;4.32;2.22;;;;;;;;;;5032800;28;20208;-85
2022/07/28 06:12:41;;;;;;;5.03;2.00;;;;;;;;;;5036092;28;20260;-85
2022/07/28 06:15:13;;;;;;;3.28;2.08;;;;;;;;;;5030221;28;20277;-85
2022/07/28 06:17:40;;;;;;;3.13;1.98;;;;;;;;;;5027912;28;20232;-85
2022/07/28 06:20:08;;;;;;;3.47;1.63;;;;;;;;;;5028073;28;20289;-84
2022/07/28 06:22:50;;;;;;;4.45;2.20;;;;;;;;;;5034667;28;20202;-85
2022/07/28 06:25:20;;;;;;;4.50;2.10;;;;;;;;;;5024679;28;20263;-85
2022/07/28 06:27:48;;;;;;;3.45;1.90;;;;;;;;;;5024459;28;20238;-84
2022/07/28 06:30:15;;;;;;;2.58;2.10;;;;;;;;;;5032382;28;20206;-85
2022/07/28 06:32:48;;;;;;;3.00;1.90;;;;;;;;;;5032534;28;20279;-85
2022/07/28 06:35:16;;;;;;;3.97;2.00;;;;;;;;;;5032205;28;20244;-84
2022/07/28 06:37:43;;;;;;;3.10;2.05;;;;;;;;;;5025329;28;20221;-85
2022/07/28 06:40:12;;;;;;;3.55;1.80;;;;;;;;;;5027308;28;20232;-84
2022/07/28 06:42:41;;;;;;;3.42;1.95;;;;;;;;;;5030658;28;20202;-85
2022/07/28 06:45:14;;;;;;;4.03;2.50;;;;;;;;;;5025618;28;20206;-85
2022/07/28 06:47:41;;;;;;;3.70;2.20;;;;;;;;;;5026740;28;20320;-85
2022/07/28 06:50:12;;;;;;;4.32;1.92;;;;;;;;;;5032290;28;20275;-84
2022/07/28 06:52:39;;;;;;;3.90;1.98;;;;;;;;;;5032688;28;20292;-86
2022/07/28 06:55:07;;;;;;;3.85;2.20;;;;;;;;;;5031678;28;20292;-84
2022/07/28 06:57:35;;;;;;;4.95;2.50;;;;;;;;;;5024730;28;20241;-84
2022/07/28 07:00:05;;;;;;;3.45;2.40;;;;;;;;;;5032992;28;20220;-84
2022/07/28 07:02:34;;;;;;;2.60;2.30;;;;;;;;;;5033172;28;20275;-84
2022/07/28 07:05:04;;;;;;;4.65;2.53;;;;;;;;;;5034385;28;20206;-84
2022/07/28 07:07:31;;;;;;;2.85;2.40;;;;;;;;;;5036633;28;20257;-84
2022/07/28 07:09:59;;;;;;;4.35;2.67;;;;;;;;;;5035756;28;20205;-85
2022/07/28 07:12:33;;;;;;;4.53;2.80;;;;;;;;;;5025694;28;20317;-85
2022/07/28 07:15:08;;;;;;;4.10;2.90;;;;;;;;;;5027907;28;20198;-84
2022/07/28 07:17:37;;;;;;;4.68;3.10;;;;;;;;;;5027312;28;20228;-84
2022/07/28 07:20:09;;;;;;;9.98;5.07;;;;;;;;;;5027878;28;20218;-84
2022/07/28 07:22:42;;;;;;;14.85;11.77;;;;;;;;;;5039827;28;20201;-84
2022/07/28 07:25:10;;;;;;;26.05;23.70;;;;;;;;;;5044120;28;20206;-85
2022/07/28 07:27:37;;;;;;;34.38;31.98;;;;;;;;;;5044201;28;20230;-85
2022/07/28 07:30:07;;;;;;;33.55;31.05;;;;;;;;;;5034648;28;20198;-85
2022/07/28 07:32:35;;;;;;;29.65;27.30;;;;;;;;;;5036597;28;20236;-85
2022/07/28 07:35:03;;;;;;;20.83;19.23;;;;;;;;;;5051508;28;20209;-84
2022/07/28 07:37:32;;;;;;;20.42;18.65;;;;;;;;;;5046669;28;20273;-84
2022/07/28 07:40:19;;;;;;;17.58;16.05;;;;;;;;;;5047597;28;20210;-85
2022/07/28 07:42:47;;;;;;;16.02;14.77;;;;;;;;;;5042739;28;20257;-86
2022/07/28 07:45:18;;;;;;;11.90;10.90;;;;;;;;;;5050302;28;20202;-84
2022/07/28 07:47:46;;;;;;;9.65;8.75;;;;;;;;;;5039314;28;20234;-85
2022/07/28 07:50:17;;;;;;;8.38;7.68;;;;;;;;;;5046741;28;20284;-85
2022/07/28 07:52:45;;;;;;;8.05;7.38;;;;;;;;;;5024961;28;20261;-85
2022/07/28 07:55:12;;;;;;;9.05;8.30;;;;;;;;;;5033965;28;20202;-85
2022/07/28 07:57:39;;;;;;;6.70;6.07;;;;;;;;;;5036618;28;20316;-85
2022/07/28 08:00:10;;;;;;;7.00;6.30;;;;;;;;;;5026755;28;20249;-85
2022/07/28 08:02:39;;;;;;;7.18;6.35;;;;;;;;;;5036367;28;20209;-83
2022/07/28 08:05:07;;;;;;;6.80;6.20;;;;;;;;;;5035893;28;20634;-83
2022/07/28 08:07:37;;;;;;;6.38;5.78;;;;;;;;;;5031775;28;20325;-84
2022/07/28 08:10:06;;;;;;;7.90;5.60;;;;;;;;;;5026386;28;20206;-83
2022/07/28 08:12:36;;;;;;;5.80;5.25;;;;;;;;;;5028522;28;20293;-84
2022/07/28 08:15:04;;;;;;;6.10;5.18;;;;;;;;;;5027618;28;20194;-85
2022/07/28 08:17:31;;;;;;;5.22;4.80;;;;;;;;;;5033946;28;20254;-85
2022/07/28 08:19:59;;;;;;;5.20;4.80;;;;;;;;;;5035612;28;20202;-85
2022/07/28 08:22:34;;;;;;;4.72;4.32;;;;;;;;;;5042199;28;20209;-85
2022/07/28 08:25:03;;;;;;;4.57;4.18;;;;;;;;;;5035544;28;20657;-85
2022/07/28 08:27:30;;;;;;;5.53;4.25;;;;;;;;;;5028508;28;20225;-84
2022/07/28 08:29:57;;;;;;;4.57;4.18;;;;;;;;;;5035805;28;20728;-85
2022/07/28 08:32:27;;;;;;;4.57;4.18;;;;;;;;;;5034940;28;20264;-84
2022/07/28 08:37:44;;;;;;;4.30;3.90;;;;;;;;;;5032429;28;20264;-85
2022/07/28 08:40:14;;;;;;;4.10;3.80;;;;;;;;;;5023257;28;20200;-84
2022/07/28 08:42:44;;;;;;;4.18;3.88;;;;;;;;;;5033571;28;20665;-86
2022/07/28 08:45:13;;;;;;;5.05;4.50;;;;;;;;;;5028886;28;20248;-85
2022/07/28 08:47:44;;;;;;;4.43;4.03;;;;;;;;;;5032519;28;20221;-85
2022/07/28 08:50:15;;;;;;;4.28;3.97;;;;;;;;;;5036256;28;20242;-85
2022/07/28 08:52:47;;;;;;;4.40;4.00;;;;;;;;;;5025087;28;20210;-84
2022/07/28 08:55:22;;;;;;;4.75;4.07;;;;;;;;;;5030385;28;20206;-85
2022/07/28 08:57:53;;;;;;;5.50;4.10;;;;;;;;;;5031363;28;20260;-84
2022/07/28 09:00:27;;;;;;;4.57;4.10;;;;;;;;;;5029906;28;20197;-85
2022/07/28 09:02:54;;;;;;;4.40;4.07;;;;;;;;;;5039396;28;20315;-85
2022/07/28 09:05:22;;;;;;;5.03;4.53;;;;;;;;;;5037567;28;20220;-85
2022/07/28 09:08:02;;;;;;;4.35;4.05;;;;;;;;;;5034552;28;20226;-84
2022/07/28 09:10:31;;;;;;;4.82;4.43;;;;;;;;;;5034877;28;20205;-85
2022/07/28 09:12:59;;;;;;;4.57;3.97;;;;;;;;;;5029007;28;20205;-85
2022/07/28 09:15:26;;;;;;;4.38;3.97;;;;;;;;;;5033763;28;20214;-86
2022/07/28 09:17:54;;;;;;;4.63;4.22;;;;;;;;;;5033105;28;20284;-84
2022/07/28 09:20:21;;;;;;;4.40;4.00;;;;;;;;;;5034383;28;20297;-85
2022/07/28 09:25:49;;;;;;;4.95;4.20;;;;;;;;;;5036739;28;20233;-85
2022/07/28 09:28:24;;;;;;;5.10;4.10;;;;;;;;;;5031634;28;20268;-85
2022/07/28 09:30:53;;;;;;;4.45;4.05;;;;;;;;;;5032841;28;20240;-85
2022/07/28 09:33:24;;;;;;;4.53;4.13;;;;;;;;;;5039656;28;20232;-85
2022/07/28 09:35:53;;;;;;;4.65;4.22;;;;;;;;;;5033787;28;20212;-84
2022/07/28 09:38:21;;;;;;;4.60;4.20;;;;;;;;;;5051010;23;20259;-84
2022/07/28 09:41:00;;;;;;;5.43;4.60;;;;;;;;;;5054678;28;20247;-85
2022/07/28 09:46:26;;;;;;;7.18;4.65;;;;;;;;;;5051780;28;20205;-85
2022/07/28 09:49:26;;;;;;;6.10;4.70;;;;;;;;;;5059644;28;20239;-85
2022/07/28 09:52:04;;;;;;;5.95;4.95;;;;;;;;;;5043253;28;20211;-85
2022/07/28 09:54:34;;;;;;;5.78;4.55;;;;;;;;;;5053003;28;20312;-84
2022/07/28 09:57:06;;;;;;;4.55;4.15;;;;;;;;;;5063541;28;20933;-84
2022/07/28 09:59:46;;;;;;;4.95;4.38;;;;;;;;;;5051129;28;20272;-85
2022/07/28 10:02:13;;;;;;;5.10;4.60;;;;;;;;;;5047402;28;20200;-84
2022/07/28 10:04:42;;;;;;;4.63;4.22;;;;;;;;;;5049080;28;20201;-85
2022/07/28 10:07:12;;;;;;;8.30;6.38;;;;;;;;;;5053145;28;20213;-84
2022/07/28 10:09:40;;;;;;;15.13;7.82;;;;;;;;;;5056805;28;20201;-85
2022/07/28 10:12:19;;;;;;;10.65;7.10;;;;;;;;;;5052673;28;20208;-85
2022/07/28 10:14:47;;;;;;;9.70;6.28;;;;;;;;;;5057153;28;20217;-86
2022/07/28 10:17:30;;;;;;;7.22;5.80;;;;;;;;;;5043595;28;20256;-84
2022/07/28 10:19:59;;;;;;;8.77;6.32;;;;;;;;;;5046116;28;20656;-84
2022/07/28 10:22:28;;;;;;;7.93;6.30;;;;;;;;;;5059854;28;20209;-85
2022/07/28 10:25:08;;;;;;;7.93;6.18;;;;;;;;;;5056756;28;20644;-85
2022/07/28 10:27:44;;;;;;;7.95;5.80;;;;;;;;;;5055620;28;20224;-87
2022/07/28 10:30:15;;;;;;;6.43;5.50;;;;;;;;;;5050224;28;20204;-86
2022/07/28 10:32:44;;;;;;;6.50;5.60;;;;;;;;;;5039456;28;20298;-85
2022/07/28 10:35:12;;;;;;;8.27;5.80;;;;;;;;;;5051833;28;20276;-86
2022/07/28 10:37:44;;;;;;;8.68;6.10;;;;;;;;;;5054070;28;20232;-85
2022/07/28 10:40:14;;;;;;;7.93;5.70;;;;;;;;;;5059792;28;20222;-84
2022/07/28 10:42:42;;;;;;;6.70;6.00;;;;;;;;;;5046966;28;20582;-86
2022/07/28 10:45:14;;;;;;;6.32;5.63;;;;;;;;;;5058547;28;20684;-85
2022/07/28 10:47:41;;;;;;;5.90;5.30;;;;;;;;;;5071224;28;20223;-85
2022/07/28 10:50:09;;;;;;;5.65;5.13;;;;;;;;;;5060119;28;20205;-85
2022/07/28 10:52:38;;;;;;;5.88;5.28;;;;;;;;;;5059724;28;20376;-84
2022/07/28 10:55:11;;;;;;;5.57;5.07;;;;;;;;;;5056271;28;20214;-85
2022/07/28 10:57:48;;;;;;;6.53;4.70;;;;;;;;;;5068551;28;20220;-85
2022/07/28 11:00:18;;;;;;;5.70;5.10;;;;;;;;;;5066425;28;20206;-85
2022/07/28 11:02:55;;;;;;;5.50;5.10;;;;;;;;;;5047209;28;20583;-85
2022/07/28 11:05:26;;;;;;;5.47;4.85;;;;;;;;;;5050965;28;20196;-84
2022/07/28 11:08:13;;;;;;;5.10;4.60;;;;;;;;;;5054166;28;20227;-85
2022/07/28 11:10:47;;;;;;;5.45;4.70;;;;;;;;;;5057432;28;20205;-86
2022/07/28 11:13:31;;;;;;;5.53;5.03;;;;;;;;;;5057899;28;20216;-86
2022/07/28 11:16:20;;;;;;;4.72;4.32;;;;;;;;;;5065739;28;20291;-86
2022/07/28 11:19:10;;;;;;;4.97;4.57;;;;;;;;;;5056476;28;20598;-86
2022/07/28 11:22:04;;;;;;;5.25;4.75;;;;;;;;;;5055522;28;20269;-86
2022/07/28 11:24:46;;;;;;;5.47;4.80;;;;;;;;;;5055793;28;20210;-86
2022/07/28 11:27:13;;;;;;;4.72;4.32;;;;;;;;;;5057430;28;20241;-87
2022/07/28 11:29:53;;;;;;;4.95;4.45;;;;;;;;;;5074156;28;20204;-87
2022/07/28 11:32:20;;;;;;;4.43;4.03;;;;;;;;;;5074029;28;20215;-85
2022/07/28 11:35:07;;;;;;;4.50;4.20;;;;;;;;;;5069123;28;20311;-87
2022/07/28 11:37:49;;;;;;;4.20;3.90;;;;;;;;;;5068941;28;20255;-87
2022/07/28 11:40:36;;;;;;;6.88;4.75;;;;;;;;;;5059042;28;20232;-85
2022/07/28 11:43:22;;;;;;;4.63;4.18;;;;;;;;;;5064028;28;20275;-86
2022/07/28 11:48:38;;;;;;;5.13;4.30;;;;;;;;;;5056441;28;20231;-86
2022/07/28 11:51:11;;;;;;;4.60;4.20;;;;;;;;;;5064391;28;20219;-84
2022/07/28 11:53:40;;;;;;;4.85;4.45;;;;;;;;;;5056010;28;20233;-84
2022/07/28 11:56:11;;;;;;;4.45;4.05;;;;;;;;;;5054707;28;20229;-85
2022/07/28 11:58:41;;;;;;;5.13;4.60;;;;;;;;;;5057696;28;20225;-84
2022/07/28 12:01:13;;;;;;;5.57;4.68;;;;;;;;;;5054507;28;20205;-85
2022/07/28 12:03:41;;;;;;;4.97;4.28;;;;;;;;;;5060059;28;20273;-85
2022/07/28 12:06:09;;;;;;;4.43;4.03;;;;;;;;;;5053765;28;20193;-84
2022/07/28 12:08:50;;;;;;;4.40;4.00;;;;;;;;;;5057306;28;20232;-86
2022/07/28 12:11:20;;;;;;;7.13;4.45;;;;;;;;;;5051118;28;20212;-85
2022/07/28 12:13:49;;;;;;;4.88;4.38;;;;;;;;;;5065338;28;20264;-84
2022/07/28 12:16:19;;;;;;;4.30;3.97;;;;;;;;;;5073248;28;20200;-83
2022/07/28 12:18:53;;;;;;;4.43;4.03;;;;;;;;;;5055420;28;20257;-84
2022/07/28 12:21:40;;;;;;;4.55;4.15;;;;;;;;;;5066047;28;20680;-85
2022/07/28 12:24:08;;;;;;;4.57;4.18;;;;;;;;;;5059394;28;20213;-85
2022/07/28 12:26:44;;;;;;;4.68;4.28;;;;;;;;;;5068513;28;20229;-85
2022/07/28 12:29:21;;;;;;;5.18;4.78;;;;;;;;;;5048230;28;20212;-84
2022/07/28 12:31:54;;;;;;;4.40;4.10;;;;;;;;;;5052983;28;20236;-85
2022/07/28 12:34:22;;;;;;;4.60;4.20;;;;;;;;;;5050664;28;20221;-85
2022/07/28 12:36:51;;;;;;;4.43;4.00;;;;;;;;;;5063256;28;20300;-84
2022/07/28 12:42:05;;;;;;;4.30;4.00;;;;;;;;;;5051186;28;20204;-83
2022/07/28 12:44:38;;;;;;;4.43;4.03;;;;;;;;;;5057242;28;20288;-85
2022/07/28 12:47:07;;;;;;;5.85;4.00;;;;;;;;;;5053295;28;20213;-84
2022/07/28 12:49:35;;;;;;;4.75;4.35;;;;;;;;;;5056293;28;20200;-84
2022/07/28 12:54:57;;;;;;;4.40;4.00;;;;;;;;;;5057855;28;20221;-85
2022/07/28 12:57:46;;;;;;;3.78;3.47;;;;;;;;;;5057122;28;20229;-83
2022/07/28 13:00:15;;;;;;;3.63;3.33;;;;;;;;;;5068731;28;20258;-83
2022/07/28 13:02:45;;;;;;;4.15;3.75;;;;;;;;;;5061540;28;20220;-85
2022/07/28 13:05:28;;;;;;;4.07;3.70;;;;;;;;;;5070066;28;20239;-85
2022/07/28 13:08:06;;;;;;;4.10;3.80;;;;;;;;;;5056062;28;20220;-84
2022/07/28 13:10:33;;;;;;;4.03;3.72;;;;;;;;;;5074390;28;20294;-83
2022/07/28 13:13:05;;;;;;;4.28;3.97;;;;;;;;;;5072082;28;20220;-83
2022/07/28 13:15:41;;;;;;;3.95;3.50;;;;;;;;;;5055888;28;20217;-83
2022/07/28 13:18:12;;;;;;;3.97;3.67;;;;;;;;;;5053909;28;20228;-83
2022/07/28 13:20:49;;;;;;;3.72;3.42;;;;;;;;;;5055686;28;20643;-83
2022/07/28 13:23:18;;;;;;;4.55;3.80;;;;;;;;;;5062226;28;20197;-83
2022/07/28 13:25:51;;;;;;;3.92;3.58;;;;;;;;;;5071033;28;20201;-83
2022/07/28 13:28:48;;;;;;;3.97;3.67;;;;;;;;;;5065074;28;20249;-83
2022/07/28 13:31:21;;;;;;;3.90;3.60;;;;;;;;;;5059954;28;20212;-84
2022/07/28 13:33:48;;;;;;;4.65;3.80;;;;;;;;;;5068286;28;20267;-81
2022/07/28 13:36:16;;;;;;;5.03;3.75;;;;;;;;;;5068534;28;20224;-83
2022/07/28 13:38:46;;;;;;;4.15;3.40;;;;;;;;;;5065941;28;20240;-82
2022/07/28 13:41:13;;;;;;;4.05;3.75;;;;;;;;;;5075557;28;20220;-83
2022/07/28 13:43:58;;;;;;;3.88;3.38;;;;;;;;;;5058916;28;20209;-83
2022/07/28 13:46:30;;;;;;;4.20;3.80;;;;;;;;;;5056187;28;20193;-82
2022/07/28 13:49:00;;;;;;;4.00;3.58;;;;;;;;;;5068939;28;20247;-81
2022/07/28 13:51:28;;;;;;;4.55;3.90;;;;;;;;;;5072439;28;20214;-83
2022/07/28 13:53:57;;;;;;;3.85;3.55;;;;;;;;;;5073606;28;20236;-82
2022/07/28 13:56:25;;;;;;;4.13;3.70;;;;;;;;;;5059253;28;20270;-83
2022/07/28 13:58:54;;;;;;;3.80;3.50;;;;;;;;;;5060120;28;20221;-82
2022/07/28 14:01:21;;;;;;;3.80;3.50;;;;;;;;;;5073370;28;20209;-82
2022/07/28 14:03:55;;;;;;;3.90;3.60;;;;;;;;;;5057415;28;20209;-82
2022/07/28 14:09:12;;;;;;;4.03;3.63;;;;;;;;;;5069861;28;20305;-84
2022/07/28 14:11:41;;;;;;;3.40;3.20;;;;;;;;;;5049937;28;20303;-86
2022/07/28 14:14:11;;;;;;;3.95;3.65;;;;;;;;;;5048728;28;20209;-85
2022/07/28 14:16:39;;;;;;;3.90;3.60;;;;;;;;;;5056185;28;20244;-86
2022/07/28 14:19:06;;;;;;;3.67;3.38;;;;;;;;;;5051251;28;20708;-85
2022/07/28 14:21:36;;;;;;;4.07;3.47;;;;;;;;;;5050747;28;20205;-85
2022/07/28 14:24:05;;;;;;;4.13;3.63;;;;;;;;;;5051056;28;20225;-85
2022/07/28 14:26:35;;;;;;;4.07;3.78;;;;;;;;;;5058660;28;20193;-85
2022/07/28 14:29:03;;;;;;;4.13;3.80;;;;;;;;;;5056851;28;20700;-85
2022/07/28 14:31:32;;;;;;;4.05;3.60;;;;;;;;;;5057636;28;20201;-85
2022/07/28 14:34:05;;;;;;;4.65;3.75;;;;;;;;;;5056079;28;20251;-84
2022/07/28 14:36:35;;;;;;;4.30;3.90;;;;;;;;;;5057970;28;20221;-84
2022/07/28 14:41:55;;;;;;;3.50;3.30;;;;;;;;;;5033247;28;20201;-85
2022/07/28 14:50:04;;;;;;;4.00;3.70;;;;;;;;;;5053150;28;20207;-85
2022/07/28 14:52:37;;;;;;;3.97;3.67;;;;;;;;;;5062889;28;20201;-85
2022/07/28 14:55:13;;;;;;;3.72;3.50;;;;;;;;;;5061271;28;20220;-84
2022/07/28 14:57:57;;;;;;;4.43;3.70;;;;;;;;;;5070161;28;20252;-85
2022/07/28 15:00:29;;;;;;;4.05;3.78;;;;;;;;;;5057220;28;20291;-84
2022/07/28 15:02:57;;;;;;;3.85;3.45;;;;;;;;;;5071523;28;20292;-84
2022/07/28 15:05:28;;;;;;;3.83;3.53;;;;;;;;;;5060895;28;20197;-85
2022/07/28 15:08:22;;;;;;;3.60;3.28;;;;;;;;;;5050663;28;20295;-85
2022/07/28 15:10:49;;;;;;;4.10;3.70;;;;;;;;;;5054164;28;20205;-85
2022/07/28 15:13:19;;;;;;;3.38;3.17;;;;;;;;;;5060630;28;20302;-85
2022/07/28 15:15:53;;;;;;;4.20;3.80;;;;;;;;;;5056059;28;20217;-84
2022/07/28 15:18:25;;;;;;;5.65;3.45;;;;;;;;;;5051638;28;20221;-85
2022/07/28 15:21:01;;;;;;;3.85;3.55;;;;;;;;;;5054181;28;20199;-84
2022/07/28 15:23:29;;;;;;;4.00;3.70;;;;;;;;;;5053507;28;20207;-84
2022/07/28 15:28:47;;;;;;;4.13;3.80;;;;;;;;;;5060869;28;20233;-85
2022/07/28 15:31:31;;;;;;;4.22;3.90;;;;;;;;;;5065496;28;20200;-85
2022/07/28 15:34:15;;;;;;;3.80;3.50;;;;;;;;;;5064699;28;20288;-84
2022/07/28 15:39:28;;;;;;;4.53;3.92;;;;;;;;;;5058330;28;20217;-84
2022/07/28 15:41:59;;;;;;;4.13;3.83;;;;;;;;;;5054595;28;20243;-85
2022/07/28 15:44:30;;;;;;;4.20;3.80;;;;;;;;;;5054751;28;20204;-85
2022/07/28 15:47:03;;;;;;;3.67;3.38;;;;;;;;;;5066206;28;20224;-85
2022/07/28 15:49:35;;;;;;;3.92;3.47;;;;;;;;;;5065419;28;20216;-84
2022/07/28 15:52:20;;;;;;;5.25;3.90;;;;;;;;;;5054431;28;20293;-85
2022/07/28 15:55:06;;;;;;;4.00;3.70;;;;;;;;;;5054302;28;20770;-85
2022/07/28 15:57:50;;;;;;;4.13;3.63;;;;;;;;;;5059999;23;20316;-84
2022/07/28 16:00:22;;;;;;;4.68;3.50;;;;;;;;;;5029733;28;20217;-84
2022/07/28 16:03:04;;;;;;;;;;;;;;;;;;;;;
2022/07/28 16:05:48;;;;;;;3.60;3.30;;;;;;;;;;5035269;28;20200;-84
2022/07/28 16:08:15;;;;;;;4.40;3.70;;;;;;;;;;5026501;28;20218;-84
2022/07/28 16:10:46;;;;;;;3.60;3.40;;;;;;;;;;5025342;28;20289;-85
2022/07/28 16:13:21;;;;;;;3.92;3.55;;;;;;;;;;5024943;28;20200;-85
2022/07/28 16:22:09;;;;;;;3.50;3.20;;;;;;;;;;5000545;28;20190;-85
2022/07/28 16:30:43;;;;;;;3.97;3.67;;;;;;;;;;5034256;28;20205;-84
2022/07/28 16:33:27;;;;;;;3.78;3.47;;;;;;;;;;5023336;28;20210;-84
2022/07/28 16:35:57;;;;;;;3.80;3.50;;;;;;;;;;5025631;28;20228;-85
2022/07/28 16:39:02;;;;;;;3.38;3.17;;;;;;;;;;5025646;28;20597;-84
2022/07/28 16:41:49;;;;;;;3.22;2.97;;;;;;;;;;5015850;28;20293;-85
2022/07/28 16:47:23;;;;;;;4.53;3.35;;;;;;;;;;5039955;28;20220;-84
2022/07/28 16:49:53;;;;;;;3.60;3.30;;;;;;;;;;5025745;28;20202;-85
2022/07/28 17:07:15;;;;;;;3.58;3.25;;;;;;;;;;4971421;28;20215;-85
2022/07/28 17:09:53;;;;;;;3.42;3.13;;;;;;;;;;4971599;28;20204;-85
2022/07/28 17:12:28;;;;;;;3.40;3.20;;;;;;;;;;4971911;28;20206;-85
2022/07/28 17:15:01;;;;;;;3.80;3.50;;;;;;;;;;4971861;28;20199;-84
2022/07/28 17:17:34;;;;;;;3.80;3.50;;;;;;;;;;4970760;28;20235;-84
2022/07/28 17:20:15;;;;;;;3.60;3.30;;;;;;;;;;4974675;28;20267;-84
2022/07/28 17:23:00;;;;;;;;;;;;;;;;;;;;;
2022/07/28 17:25:29;;;;;;;3.20;3.00;;;;;;;;;;4969896;28;20230;-85
2022/07/28 17:28:20;;;;;;;3.55;3.25;;;;;;;;;;4969374;28;20243;-84
2022/07/28 17:31:00;;;;;;;3.10;2.90;;;;;;;;;;4949261;28;20208;-85
2022/07/28 17:36:44;;;;;;;3.42;3.10;;;;;;;;;;4969037;28;20216;-85
2022/07/28 17:39:26;;;;;;;3.60;3.28;;;;;;;;;;4960643;28;20723;-85
2022/07/28 17:44:58;;;;;;;3.70;3.42;;;;;;;;;;4939741;28;20216;-84
2022/07/28 18:32:08;;;;;;;3.90;3.60;;;;;;;;;;5030890;28;20288;-86
2022/07/28 18:34:47;;;;;;;3.95;3.55;;;;;;;;;;5033030;28;20202;-87
2022/07/28 18:37:22;;;;;;;3.70;3.40;;;;;;;;;;5030194;28;20230;-86
2022/07/28 18:42:47;;;;;;;3.97;3.67;;;;;;;;;;5024236;28;20293;-87
2022/07/28 18:45:35;;;;;;;4.80;3.50;;;;;;;;;;5027066;28;20257;-86
2022/07/28 18:51:18;;;;;;;4.07;3.67;;;;;;;;;;5010985;28;20210;-87
2022/07/28 18:54:01;;;;;;;5.35;3.70;;;;;;;;;;4978072;28;20223;-86